November 29, 2022
Temp
 
53.6 °F
 
Dew Pt.
 
50.7 °F
 
Humidity
 
90%
 
Pressure
 
1012.0 hPa 
  steady
Wind
 
0.0 mph 
    NNW
Rain
 
0.00 in 
  0.00 in/hr
UV index
 
---  
 
Solar rad.
 
100 W/m²
 
Overnight

Overnight: Mostly cloudy, with a low around 48. North northwest wind around 5 mph.
Mostly Cloudy

Tuesday

Tuesday: Mostly sunny, with a high near 64. East wind around 5 mph.
Mostly Sunny

Lo 48 °F Hi 64 °F
MAP MAG LOCAL DATETIME
y/m/d h:m:s
LAT
deg
LON
deg
DEPTH
km
LOCATION
map1.12022/11/29 02:03:4138.528N119.462W10.4 30 km (19 mi) SSW of Smith Valley, NV
map1.02022/11/29 02:00:1935.768N117.584W7.2 16 km (10 mi) W of Searles Valley, CA
map1.42022/11/29 01:35:1438.542N119.465W7.2 29 km (18 mi) SSW of Smith Valley, NV
map1.42022/11/29 01:29:3633.288N116.083W1.04 12 km ( 7 mi) W of Salton City, CA
map1.12022/11/29 01:21:1836.930N116.139W10.0 55 km (34 mi) E of Beatty, NV
map1.22022/11/29 01:11:2433.295N116.069W2.15 11 km ( 7 mi) W of Salton City, CA
map0.92022/11/29 00:32:3933.679N116.703W13.93 7 km ( 4 mi) SSE of Idyllwild, CA
map0.92022/11/29 00:31:0833.679N116.703W13.71 7 km ( 4 mi) SSE of Idyllwild, CA
map1.42022/11/29 00:23:0633.673N116.708W11.58 8 km ( 5 mi) S of Idyllwild, CA
map0.52022/11/29 00:22:4533.604N116.806W8.57 13 km ( 8 mi) WNW of Anza, CA
map1.72022/11/28 23:32:4732.530N115.230W17.54 12 km ( 8 mi) ESE of Puebla, B.C., MX
map0.42022/11/28 23:28:2133.587N116.802W7.6 12 km ( 8 mi) WNW of Anza, CA
map0.52022/11/28 23:28:1538.788N122.746W1.57 1 km ( 1 mi) NE of The Geysers, CA
map1.52022/11/28 22:50:2836.708N121.395W-0.41 12 km ( 7 mi) SSW of Ridgemark, CA
map0.92022/11/28 22:46:5338.832N122.818W1.83 8 km ( 5 mi) NW of The Geysers, CA
map2.12022/11/28 22:34:3138.832N122.815W1.63 8 km ( 5 mi) NW of The Geysers, CA
map0.92022/11/28 22:31:4638.826N122.808W3.06 7 km ( 4 mi) NW of The Geysers, CA
map0.92022/11/28 22:24:4538.834N122.809W2.22 8 km ( 5 mi) W of Cobb, CA
map1.02022/11/28 22:23:2534.334N118.484W9.06 4 km ( 3 mi) NW of Sylmar, CA
map0.42022/11/28 22:19:3438.833N122.817W1.61 8 km ( 5 mi) NW of The Geysers, CA
map1.02022/11/28 22:19:2438.831N122.815W1.45 8 km ( 5 mi) NW of The Geysers, CA
map1.32022/11/28 22:17:3239.260N123.213W4.04 1 km ( 1 mi) SW of Redwood Valley, CA
map0.82022/11/28 21:03:1933.216N116.743W11.24 3 km ( 2 mi) SSE of Lake Henshaw, CA
map1.22022/11/28 21:01:2433.217N116.740W11.84 3 km ( 2 mi) SE of Lake Henshaw, CA
map1.02022/11/28 20:22:3338.837N122.806W2.58 7 km ( 5 mi) WNW of Cobb, CA
map0.92022/11/28 20:18:4538.836N122.799W2.19 7 km ( 4 mi) WNW of Cobb, CA
map2.22022/11/28 19:47:2432.675N115.678W10.23 14 km ( 9 mi) NW of Progreso, B.C., MX
MAP3.12022/11/28 19:46:1240.490N125.874W10.01136 km (85 mi) W of Ferndale, CA
map0.62022/11/28 19:42:1033.221N116.756W8.86 2 km ( 1 mi) SSE of Lake Henshaw, CA
map2.12022/11/28 19:14:3233.266N116.430W3.89 5 km ( 3 mi) WNW of Borrego Springs, CA
map0.92022/11/28 19:08:2738.830N122.792W1.69 6 km ( 4 mi) W of Cobb, CA
map1.62022/11/28 18:52:4336.072N117.636W1.84 28 km (18 mi) E of Coso Junction, CA
map1.72022/11/28 18:23:3638.753N122.697W0.25 6 km ( 4 mi) ESE of The Geysers, CA
map2.42022/11/28 18:22:3635.878N120.421W6.51 2 km ( 2 mi) SSE of Parkfield, CA
map0.72022/11/28 18:02:3133.590N116.800W9.38 12 km ( 8 mi) WNW of Anza, CA
map1.32022/11/28 17:39:1334.016N117.178W4.22 4 km ( 3 mi) S of Redlands, CA
map0.22022/11/28 17:20:4238.796N122.776W3.75 3 km ( 2 mi) NW of The Geysers, CA
map1.52022/11/28 16:52:1434.801N118.929W7.55 3 km ( 2 mi) SSE of Frazier Park, CA
map0.92022/11/28 16:46:2938.837N122.811W1.89 8 km ( 5 mi) WNW of Cobb, CA
map1.02022/11/28 16:22:0837.294N121.668W5.6 15 km ( 9 mi) E of Seven Trees, CA
map1.92022/11/28 16:21:1238.791N122.707W1.69 4 km ( 2 mi) SSE of Cobb, CA
map0.42022/11/28 14:10:4838.838N122.824W1.82 9 km ( 6 mi) W of Cobb, CA
map0.92022/11/28 14:10:2438.839N122.825W1.57 9 km ( 6 mi) WNW of Cobb, CA
map1.72022/11/28 14:06:4934.194N117.573W13.47 8 km ( 5 mi) N of Rancho Cucamonga, CA
map2.22022/11/28 13:32:1635.673N117.513W1.59 14 km ( 9 mi) SW of Searles Valley, CA
map1.22022/11/28 12:43:3333.858N117.505W1.62 1 km ( 1 mi) NNW of Quarry at CORONA (Probable quarry explosion)
map1.22022/11/28 12:37:1737.138N121.519W10.32 10 km ( 6 mi) NE of San Martin, CA
map1.02022/11/28 12:23:3038.806N122.790W0.78 4 km ( 3 mi) NW of The Geysers, CA
map1.52022/11/28 12:23:2133.849N117.493W1.12 1 km ( 0 mi) ESE of Quarry at CORONA (Probable quarry explosion)
map0.42022/11/28 12:00:0038.838N122.808W2.15 8 km ( 5 mi) WNW of Cobb, CA
map1.02022/11/28 11:47:1333.219N116.744W11.27 3 km ( 2 mi) SE of Lake Henshaw, CA
map0.82022/11/28 11:42:1637.635N118.908W3.37 6 km ( 4 mi) E of Mammoth Lakes, CA
map0.52022/11/28 11:37:3638.800N122.771W1.62 3 km ( 2 mi) NNW of The Geysers, CA
map1.52022/11/28 11:21:5133.219N116.749W9.49 3 km ( 2 mi) SSE of Lake Henshaw, CA
map1.32022/11/28 10:38:3233.300N115.769W3.99 6 km ( 4 mi) SSW of Bombay Beach, CA
map1.22022/11/28 10:25:5138.833N122.807W2.12 7 km ( 5 mi) W of Cobb, CA
map0.42022/11/28 09:46:1538.808N122.724W4.52 2 km ( 1 mi) S of Cobb, CA
map1.42022/11/28 09:42:2536.011N118.290W15.12 31 km (19 mi) NNE of Kernville, CA
map0.72022/11/28 09:23:0033.551N116.415W9.31 16 km (10 mi) SW of La Quinta, CA
map0.42022/11/28 09:16:0838.167N118.154W9.5 57 km (35 mi) SE of Hawthorne, NV
map1.52022/11/28 09:11:5334.570N118.830W-0.04 18 km (11 mi) N of Piru, CA
map-0.22022/11/28 09:02:2036.808N116.237W6.9 47 km (29 mi) ESE of Beatty, NV
map1.22022/11/28 08:32:1533.170N116.003W4.69 12 km ( 8 mi) ENE of Ocotillo Wells, CA
map0.82022/11/28 08:28:1533.370N116.376W12.37 13 km ( 8 mi) N of Borrego Springs, CA
map0.82022/11/28 08:23:0035.860N117.692W10.83 21 km (13 mi) ESE of Little Lake, CA
map1.22022/11/28 08:18:0639.164N123.587W-0.38 26 km (16 mi) NW of Boonville, CA
map0.92022/11/28 08:13:0338.816N122.832W1.33 8 km ( 5 mi) WNW of The Geysers, CA
map1.62022/11/28 07:49:3938.836N122.791W1.85 6 km ( 4 mi) WNW of Cobb, CA
map1.12022/11/28 07:47:2134.122N117.472W7.16 3 km ( 2 mi) NNW of Fontana, CA
map2.22022/11/28 07:16:0838.560N122.444W8.43 2 km ( 1 mi) SSE of Angwin, CA
map0.82022/11/28 06:25:4838.169N117.894W9.7 59 km (37 mi) W of Tonopah, NV
map1.52022/11/28 06:24:3935.939N120.492W10.36 7 km ( 4 mi) NW of Parkfield, CA
map1.02022/11/28 06:12:5338.138N117.986W8.7 67 km (41 mi) W of Tonopah, NV
map1.02022/11/28 05:52:3538.169N117.896W9.5 59 km (37 mi) W of Tonopah, NV
map0.92022/11/28 05:51:2838.817N122.760W1.81 3 km ( 2 mi) W of Cobb, CA
map0.52022/11/28 05:17:5833.604N116.618W16.57 8 km ( 5 mi) NE of Anza, CA
map1.12022/11/28 05:13:2238.775N122.711W1.51 4 km ( 2 mi) E of The Geysers, CA
map1.12022/11/28 05:13:1234.371N118.603W6.19 10 km ( 6 mi) SSW of Valencia, CA
map1.22022/11/28 05:12:1633.286N116.076W0.97 11 km ( 7 mi) W of Salton City, CA
map1.72022/11/28 05:05:1333.219N116.750W9.49 3 km ( 2 mi) SSE of Lake Henshaw, CA
map2.42022/11/28 04:55:0637.283N120.032W17.02 20 km (12 mi) ENE of Le Grand, CA
map1.52022/11/28 04:48:0634.327N116.637W0.01 20 km (13 mi) ENE of Big Bear City, CA
map1.72022/11/28 04:33:3238.815N122.761W1.64 3 km ( 2 mi) WSW of Cobb, CA
map2.32022/11/28 04:32:5339.806N123.181W6.32 6 km ( 4 mi) ENE of Covelo, CA
map1.32022/11/28 04:30:2338.487N117.879W0.4 65 km (40 mi) E of Hawthorne, NV
map0.92022/11/28 04:03:4938.797N122.774W3.4 3 km ( 2 mi) NW of The Geysers, CA
map0.92022/11/28 03:41:1836.000N120.889W8.49 30 km (19 mi) N of Lake Nacimiento, CA
map1.42022/11/28 03:41:0636.795N115.373W5.5 66 km (41 mi) SSW of Alamo, NV
map1.12022/11/28 02:59:3338.829N122.802W1.65 7 km ( 4 mi) W of Cobb, CA
map1.12022/11/28 02:41:0633.828N117.754W3.18 6 km ( 3 mi) ENE of Villa Park, CA
map1.42022/11/28 02:38:1836.871N121.610W11.18 4 km ( 2 mi) SE of Aromas, CA
map1.32022/11/28 02:34:2233.966N116.801W12.63 6 km ( 3 mi) NNW of Cabazon, CA
map0.62022/11/28 02:21:2838.159N117.892W9.7 59 km (36 mi) W of Tonopah, NV
map2.22022/11/28 02:07:3138.798N122.758W1.94 2 km ( 1 mi) N of The Geysers, CA
map1.32022/11/28 01:58:2833.225N115.579W1.77 6 km ( 4 mi) WSW of Niland, CA
map1.02022/11/28 01:50:0336.767N121.281W8.91 9 km ( 6 mi) ESE of Ridgemark, CA
map1.32022/11/28 01:28:5336.764N121.282W8.51 9 km ( 6 mi) SE of Ridgemark, CA
map0.92022/11/28 01:15:4038.788N122.745W1.84 2 km ( 1 mi) NE of The Geysers, CA
map2.12022/11/28 01:03:5734.279N118.700W4.52 4 km ( 2 mi) ENE of Simi Valley, CA
map0.92022/11/28 00:54:3537.493N118.800W17.18 22 km (14 mi) SE of Mammoth Lakes, CA
map1.62022/11/28 00:53:0935.636N117.451W9.5 15 km ( 9 mi) SSW of Searles Valley, CA
map1.72022/11/28 00:49:1337.230N118.234W12.96 9 km ( 5 mi) NE of Big Pine, CA
map0.22022/11/28 00:10:5339.110N119.663W10.7 9 km ( 5 mi) NE of Johnson Lane, NV
map1.12022/11/28 00:04:2135.670N117.530W5.64 14 km ( 9 mi) ENE of Ridgecrest, CA
map0.92022/11/27 23:39:3333.512N116.507W13.72 16 km (10 mi) ESE of Anza, CA
map1.02022/11/27 23:10:5740.093N119.698W15.8 49 km (31 mi) N of Spanish Springs, NV
map0.32022/11/27 23:02:5537.388N117.091W2.9 61 km (38 mi) NNW of Beatty, NV
map1.12022/11/27 22:49:2735.714N117.580W7.07 13 km ( 8 mi) NE of Ridgecrest, CA
map0.12022/11/27 22:47:5136.754N116.004W3.0 61 km (38 mi) N of Pahrump, NV
map1.02022/11/27 22:35:1034.078N117.267W14.33 3 km ( 2 mi) N of Loma Linda, CA
map0.02022/11/27 22:29:0636.754N116.001W3.0 61 km (38 mi) N of Pahrump, NV
map-0.12022/11/27 22:28:4936.756N116.002W2.5 61 km (38 mi) N of Pahrump, NV
map0.92022/11/27 22:25:4038.818N122.808W2.83 6 km ( 4 mi) NW of The Geysers, CA
map1.42022/11/27 22:25:3436.744N116.007W2.9 60 km (37 mi) N of Pahrump, NV
map0.82022/11/27 22:06:2239.361N119.975W4.8 12 km ( 8 mi) N of Incline Village, NV
map0.82022/11/27 22:05:1139.360N119.967W3.1 12 km ( 8 mi) N of Incline Village, NV
map0.92022/11/27 21:58:2238.835N122.817W1.73 8 km ( 5 mi) W of Cobb, CA
map0.82022/11/27 21:35:4237.461N118.987W12.52 20 km (12 mi) S of Mammoth Lakes, CA
map1.12022/11/27 21:28:5433.267N116.421W4.04 4 km ( 3 mi) WNW of Borrego Springs, CA
map0.92022/11/27 21:23:0033.170N116.008W3.94 12 km ( 7 mi) ENE of Ocotillo Wells, CA
map1.42022/11/27 21:18:3638.178N117.787W12.1 50 km (31 mi) WNW of Tonopah, NV
map0.82022/11/27 21:15:1233.257N116.102W10.97 13 km ( 8 mi) NNE of Ocotillo Wells, CA
map0.62022/11/27 20:34:1733.386N116.959W11.25 9 km ( 6 mi) WNW of Palomar Observatory, CA
map0.32022/11/27 20:15:5340.008N119.636W14.4 40 km (25 mi) N of Spanish Springs, NV
map1.32022/11/27 19:37:3838.757N122.728W2.33 3 km ( 2 mi) SE of The Geysers, CA
map1.02022/11/27 19:12:1237.483N116.853W13.3 64 km (40 mi) N of Beatty, NV
map0.92022/11/27 19:05:1138.836N122.796W2.09 6 km ( 4 mi) WNW of Cobb, CA
map0.72022/11/27 18:43:1633.219N116.750W10.97 3 km ( 2 mi) SSE of Lake Henshaw, CA
map1.12022/11/27 18:27:3735.673N117.529W6.71 14 km ( 9 mi) ENE of Ridgecrest, CA
map0.42022/11/27 18:09:0538.827N122.853W2.13 10 km ( 6 mi) NW of The Geysers, CA
map0.82022/11/27 17:46:0038.812N122.809W1.23 6 km ( 4 mi) NW of The Geysers, CA
map0.72022/11/27 17:17:2833.219N116.748W11.09 3 km ( 2 mi) SSE of Lake Henshaw, CA
map1.52022/11/27 17:04:3138.179N117.789W9.9 50 km (31 mi) WNW of Tonopah, NV
map0.72022/11/27 16:47:5433.494N116.469W15.96 20 km (12 mi) ESE of Anza, CA
map1.62022/11/27 15:38:0037.431N118.656W15.78 19 km (12 mi) WNW of West Bishop, CA
map0.32022/11/27 15:34:2437.617N118.986W3.97 2 km ( 1 mi) SSW of Mammoth Lakes, CA
map0.42022/11/27 15:18:0935.955N120.520W4.17 10 km ( 6 mi) NW of Parkfield, CA
map0.42022/11/27 15:10:1738.795N122.773W3.34 2 km ( 2 mi) NW of The Geysers, CA
map0.42022/11/27 14:56:0538.790N122.801W6.05 4 km ( 3 mi) WNW of The Geysers, CA
map0.82022/11/27 14:52:0233.077N116.483W11.12 11 km ( 7 mi) E of Julian, CA
map2.22022/11/27 14:41:1738.795N122.774W3.36 2 km ( 2 mi) NW of The Geysers, CA
map1.82022/11/27 14:36:0435.672N117.535W3.41 14 km ( 9 mi) ENE of Ridgecrest, CA
map1.22022/11/27 14:30:3038.833N122.815W1.69 8 km ( 5 mi) NW of The Geysers, CA
map0.82022/11/27 14:16:5133.509N116.506W14.08 16 km (10 mi) ESE of Anza, CA
map1.02022/11/27 13:15:4633.047N116.441W8.06 15 km (10 mi) ESE of Julian, CA
map1.02022/11/27 13:15:2236.008N118.295W14.7 30 km (19 mi) NNE of Kernville, CA
map0.92022/11/27 13:14:5438.842N122.825W1.75 9 km ( 6 mi) WNW of Cobb, CA
map0.82022/11/27 12:53:0033.502N116.510W14.05 16 km (10 mi) ESE of Anza, CA
map1.02022/11/27 12:44:4033.171N115.652W2.72 14 km ( 9 mi) WNW of Calipatria, CA
map1.62022/11/27 11:43:3137.411N119.668W15.36 7 km ( 4 mi) NE of Ahwahnee, CA
map1.02022/11/27 11:11:2935.656N117.558W6.83 11 km ( 7 mi) ENE of Ridgecrest, CA
map0.72022/11/27 11:01:1938.839N122.810W2.03 8 km ( 5 mi) WNW of Cobb, CA
map1.22022/11/27 10:52:4936.577N121.309W3.71 14 km ( 9 mi) ENE of Gonzales, CA
map1.22022/11/27 10:42:2835.767N117.594W5.89 17 km (11 mi) W of Searles Valley, CA
map0.12022/11/27 09:52:5336.697N116.247W0.0 51 km (32 mi) ESE of Beatty, NV
map0.92022/11/27 09:51:3533.952N116.850W8.37 4 km ( 2 mi) NE of Banning, CA
map2.02022/11/27 09:10:4533.680N116.732W15.85 7 km ( 4 mi) S of Idyllwild, CA
map0.82022/11/27 09:03:3538.789N122.768W1.72 2 km ( 1 mi) NW of The Geysers, CA
map1.42022/11/27 09:03:2835.866N117.692W4.5 21 km (13 mi) ESE of Little Lake, CA
map1.22022/11/27 08:43:5938.168N117.892W7.9 59 km (37 mi) W of Tonopah, NV
map0.72022/11/27 08:10:0438.147N117.885W4.5 58 km (36 mi) W of Tonopah, NV
map1.02022/11/27 08:08:2838.173N117.887W5.5 59 km (36 mi) WNW of Tonopah, NV
map0.52022/11/27 07:00:1233.689N116.787W17.13 9 km ( 5 mi) SW of Idyllwild, CA
map0.42022/11/27 06:47:5438.838N122.808W2.1 8 km ( 5 mi) WNW of Cobb, CA
map0.92022/11/27 06:45:1038.838N122.808W2.03 8 km ( 5 mi) WNW of Cobb, CA
map1.62022/11/27 06:11:0233.159N116.017W3.45 11 km ( 7 mi) E of Ocotillo Wells, CA
map1.22022/11/27 06:07:1833.218N116.748W11.42 3 km ( 2 mi) SSE of Lake Henshaw, CA
map0.82022/11/27 05:08:4038.167N117.898W10.7 59 km (37 mi) W of Tonopah, NV
map0.82022/11/27 05:08:1137.515N118.870W0.47 17 km (10 mi) SE of Mammoth Lakes, CA
map2.42022/11/27 04:33:1136.022N121.548W6.33 43 km (27 mi) SW of Greenfield, CA
map0.62022/11/27 04:31:0233.216N116.741W11.42 3 km ( 2 mi) SE of Lake Henshaw, CA
map0.32022/11/27 04:30:5036.532N116.097W6.9 37 km (23 mi) NNW of Pahrump, NV
map0.92022/11/27 04:30:2238.795N122.754W2.73 2 km ( 1 mi) N of The Geysers, CA
map0.92022/11/27 04:28:4838.814N122.822W2.58 7 km ( 4 mi) NW of The Geysers, CA
map2.02022/11/27 04:07:5636.773N121.354W5.03 4 km ( 3 mi) SSE of Ridgemark, CA
map1.92022/11/27 03:50:2733.686N116.724W15.33 6 km ( 4 mi) S of Idyllwild, CA
map2.62022/11/27 03:49:4533.161N116.019W3.29 11 km ( 7 mi) E of Ocotillo Wells, CA
map1.02022/11/27 02:15:1733.950N118.400W14.4 4 km ( 2 mi) NNE of El Segundo, CA
map0.92022/11/27 02:13:2636.020N120.884W9.95 31 km (19 mi) SE of King City, CA
map0.52022/11/27 01:36:3936.707N116.331W9.0 44 km (27 mi) ESE of Beatty, NV
map0.92022/11/27 00:53:1838.799N122.753W2.33 2 km ( 2 mi) N of The Geysers, CA
map0.82022/11/27 00:51:0539.185N119.614W2.5 6 km ( 4 mi) SSW of Dayton, NV
map1.12022/11/27 00:47:5739.185N119.620W5.6 6 km ( 4 mi) SSW of Dayton, NV
map0.52022/11/27 00:37:5637.468N118.883W5.53 21 km (13 mi) SSE of Mammoth Lakes, CA
map0.52022/11/27 00:21:3833.513N116.511W13.73 16 km (10 mi) ESE of Anza, CA
map0.42022/11/27 00:07:4033.525N116.510W12.47 16 km (10 mi) ESE of Anza, CA
map1.02022/11/27 00:07:2833.512N116.508W13.86 16 km (10 mi) ESE of Anza, CA
map0.52022/11/27 00:07:1433.520N116.513W11.39 15 km (10 mi) ESE of Anza, CA
map1.82022/11/27 00:06:5133.512N116.516W12.22 15 km (10 mi) ESE of Anza, CA
map0.92022/11/26 23:58:5538.837N122.790W1.54 6 km ( 4 mi) WNW of Cobb, CA
map0.72022/11/26 23:54:3738.838N122.790W1.96 6 km ( 4 mi) WNW of Cobb, CA
map0.92022/11/26 23:39:0634.989N118.417W10.31 16 km (10 mi) S of Tehachapi, CA
map1.02022/11/26 23:37:2535.832N117.657W10.23 23 km (15 mi) N of Ridgecrest, CA
map1.12022/11/26 23:22:2338.801N122.753W2.05 3 km ( 2 mi) N of The Geysers, CA
map0.62022/11/26 22:54:2040.183N119.607W7.8 60 km (37 mi) N of Spanish Springs, NV
map2.02022/11/26 22:50:2735.511N118.393W4.99 12 km ( 8 mi) SE of Bodfish, CA
map0.92022/11/26 22:08:2938.836N122.798W9.51 7 km ( 4 mi) WNW of Cobb, CA
map0.92022/11/26 21:50:1535.819N118.116W13.07 23 km (14 mi) SW of Little Lake, CA
map0.82022/11/26 21:45:4735.639N117.450W6.62 15 km ( 9 mi) SSW of Searles Valley, CA
map1.72022/11/26 21:17:0335.883N117.704W4.33 19 km (12 mi) ESE of Little Lake, CA
map1.22022/11/26 21:13:3835.604N118.307W9.75 15 km ( 9 mi) E of Lake Isabella, CA
map1.72022/11/26 21:11:1733.164N116.018W3.13 11 km ( 7 mi) ENE of Ocotillo Wells, CA
map0.82022/11/26 21:04:0938.836N122.793W1.89 6 km ( 4 mi) WNW of Cobb, CA
map0.82022/11/26 20:13:4233.599N116.730W12.71 7 km ( 4 mi) NW of Anza, CA
map1.82022/11/26 20:11:1436.640N120.824W2.82 39 km (24 mi) SSW of South Dos Palos, CA
map2.72022/11/26 20:00:1540.354N124.565W25.42 35 km (22 mi) SW of Ferndale, CA
map1.22022/11/26 19:50:1938.826N122.854W2.52 10 km ( 6 mi) WNW of The Geysers, CA
map1.42022/11/26 19:41:5538.535N119.520W6.3 32 km (20 mi) SSW of Smith Valley, NV
map1.82022/11/26 19:02:3637.132N115.190W0.0 26 km (16 mi) S of Alamo, NV
map0.62022/11/26 18:43:1433.221N116.751W10.27 3 km ( 2 mi) SSE of Lake Henshaw, CA
map0.52022/11/26 17:46:1233.513N116.505W13.68 16 km (10 mi) ESE of Anza, CA
map0.82022/11/26 17:30:2038.826N122.856W2.3 10 km ( 6 mi) WNW of The Geysers, CA
map1.22022/11/26 17:14:3936.125N118.048W3.9 13 km ( 8 mi) NW of Coso Junction, CA
map0.42022/11/26 17:05:1138.806N122.808W1.27 5 km ( 3 mi) NW of The Geysers, CA
map0.92022/11/26 16:39:2538.838N122.810W1.91 8 km ( 5 mi) WNW of Cobb, CA
map1.92022/11/26 16:19:0335.068N118.320W3.59 13 km ( 8 mi) W of Mojave, CA
map0.92022/11/26 15:59:0338.168N117.931W10.7 62 km (39 mi) W of Tonopah, NV
map0.02022/11/26 15:50:4836.577N116.226W4.2 45 km (28 mi) NNW of Pahrump, NV
map0.32022/11/26 15:40:2636.592N116.229W8.3 47 km (29 mi) NNW of Pahrump, NV
map1.12022/11/26 15:29:3935.647N117.447W5.7 14 km ( 9 mi) SSW of Searles Valley, CA
map0.72022/11/26 15:26:5433.474N116.755W7.98 11 km ( 7 mi) ENE of Aguanga, CA
map0.92022/11/26 14:55:3638.837N122.811W2.11 8 km ( 5 mi) WNW of Cobb, CA
map2.42022/11/26 14:16:3636.773N121.503W8.24 9 km ( 5 mi) SSE of San Juan Bautista, CA
map0.52022/11/26 14:12:1540.052N119.983W11.3 41 km (26 mi) N of Cold Springs, NV
map1.82022/11/26 13:34:3136.771N121.503W8 9 km ( 5 mi) SSE of San Juan Bautista, CA
map2.02022/11/26 12:42:1437.398N119.993W16.15 10 km ( 6 mi) SSW of Mariposa, CA
map2.32022/11/26 10:40:2437.397N119.993W15.35 10 km ( 6 mi) SSW of Mariposa, CA
map0.72022/11/26 10:05:1637.607N118.915W1.11 7 km ( 4 mi) ESE of Mammoth Lakes, CA
map1.62022/11/26 10:03:1338.515N122.578W7.44 7 km ( 4 mi) S of Calistoga, CA
map0.62022/11/26 10:02:5233.217N116.738W11.79 4 km ( 2 mi) SE of Lake Henshaw, CA
map0.92022/11/26 09:54:1138.800N122.751W2.63 3 km ( 2 mi) N of The Geysers, CA
map1.82022/11/26 09:51:4238.519N122.574W8.8 7 km ( 4 mi) S of Calistoga, CA
map1.52022/11/26 09:37:0938.175N117.832W3.0 54 km (33 mi) WNW of Tonopah, NV
map2.02022/11/26 09:21:5638.986N123.090W-0.26 16 km (10 mi) WSW of Lakeport, CA
map0.82022/11/26 08:37:3138.822N122.799W3.12 6 km ( 4 mi) NW of The Geysers, CA
map0.92022/11/26 08:22:4333.205N116.358W10.86 6 km ( 4 mi) SSE of Borrego Springs, CA
map1.42022/11/26 08:17:1538.438N118.340W8.4 26 km (16 mi) ESE of Hawthorne, NV
map0.42022/11/26 07:51:3838.832N122.815W0.75 8 km ( 5 mi) NW of The Geysers, CA
map2.32022/11/26 07:30:1538.377N115.772W7.0124 km (77 mi) NNW of Alamo, NV
map0.42022/11/26 07:28:3438.833N122.817W2.04 8 km ( 5 mi) NW of The Geysers, CA
map1.32022/11/26 07:02:1635.858N117.708W4.87 20 km (12 mi) ESE of Little Lake, CA
map0.92022/11/26 06:47:1538.821N122.776W1.54 5 km ( 3 mi) W of Cobb, CA
map1.22022/11/26 06:44:5637.428N117.078W0.0 64 km (40 mi) NNW of Beatty, NV
map2.62022/11/26 06:37:1937.993N118.234W4.0 68 km (42 mi) SSE of Hawthorne, NV
map1.02022/11/26 05:35:2738.794N122.749W1.7 2 km ( 1 mi) NNE of The Geysers, CA
map0.72022/11/26 05:21:0639.736N120.795W12.3 24 km (15 mi) SSE of East Quincy, CA
map1.22022/11/26 05:08:2234.130N116.918W5.25 13 km ( 8 mi) S of Big Bear Lake, CA
map1.82022/11/26 05:07:0236.624N121.228W5.02 23 km (14 mi) NE of Gonzales, CA
map0.82022/11/26 04:54:0738.817N122.806W3.61 6 km ( 4 mi) NW of The Geysers, CA
map-0.22022/11/26 04:24:2839.380N120.151W9.0 6 km ( 4 mi) NNE of Truckee, CA
map0.52022/11/26 04:12:3133.548N116.412W10.56 16 km (10 mi) SW of La Quinta, CA
map0.62022/11/26 03:53:0039.593N120.624W6.1 28 km (17 mi) SSW of Portola, CA
map1.42022/11/26 03:45:5338.248N119.130W5.9 54 km (33 mi) SW of Hawthorne, NV
map0.92022/11/26 03:44:2633.224N116.192W10.72 11 km ( 7 mi) NNW of Ocotillo Wells, CA
map1.22022/11/26 03:21:1932.917N116.245W7.81 27 km (17 mi) SSW of Ocotillo Wells, CA
map1.02022/11/26 03:13:5239.701N118.088W3.2 63 km (39 mi) SSE of Lovelock, NV
map0.22022/11/26 03:12:3738.778N122.742W1.41 1 km ( 1 mi) E of The Geysers, CA
map1.02022/11/26 02:53:4233.511N116.748W2.8 8 km ( 5 mi) SW of Anza, CA
map0.92022/11/26 02:45:2138.809N122.721W4.01 1 km ( 1 mi) S of Cobb, CA
map1.02022/11/26 02:38:4837.426N118.570W3.28 13 km ( 8 mi) NW of West Bishop, CA
map1.32022/11/26 02:31:0233.188N115.602W1.58 10 km ( 6 mi) SW of Niland, CA
map0.22022/11/26 02:30:2338.795N122.721W2.59 3 km ( 2 mi) S of Cobb, CA
map-0.32022/11/26 02:28:2237.614N118.900W1.66 7 km ( 5 mi) ESE of Mammoth Lakes, CA
map1.02022/11/26 02:28:0334.332N117.719W3.42 8 km ( 5 mi) WSW of Wrightwood, CA
map0.92022/11/26 02:23:5738.782N122.714W1.47 4 km ( 2 mi) E of The Geysers, CA
map2.52022/11/26 02:01:3933.096N117.973W1.96 43 km (27 mi) SE of Avalon, CA
map1.52022/11/26 01:44:3133.187N115.609W1.41 10 km ( 6 mi) SW of Niland, CA
map1.22022/11/26 01:44:1333.185N115.606W1.14 10 km ( 6 mi) SW of Niland, CA
map1.02022/11/26 01:13:4936.009N120.957W10.68 27 km (17 mi) SE of King City, CA
map1.02022/11/26 01:13:4734.428N117.908W9.94 9 km ( 5 mi) S of Pearblossom, CA
map0.72022/11/26 01:00:5438.767N122.718W17.23 4 km ( 2 mi) ESE of The Geysers, CA
map0.42022/11/26 00:44:1838.164N117.996W1.3 68 km (42 mi) SE of Hawthorne, NV
map1.12022/11/26 00:41:3435.518N118.392W6.61 12 km ( 7 mi) SE of Bodfish, CA
map2.32022/11/26 00:40:4436.770N121.287W8.67 8 km ( 5 mi) SE of Ridgemark, CA
map1.72022/11/26 00:38:0733.073N115.579W8.24 6 km ( 3 mi) NE of Westmorland, CA
map0.92022/11/26 00:32:4637.309N121.675W7.55 15 km ( 9 mi) E of Seven Trees, CA
map1.12022/11/26 00:07:5838.822N122.785W1.8 5 km ( 3 mi) W of Cobb, CA
map1.22022/11/26 00:04:3038.822N122.785W1.91 5 km ( 3 mi) W of Cobb, CA
map2.12022/11/25 23:58:4637.869N122.248W9.42 2 km ( 1 mi) E of Berkeley, CA
map2.42022/11/25 23:34:4235.584N116.909W0.3 41 km (26 mi) NNW of Fort Irwin, CA
map0.62022/11/25 23:29:1738.161N118.174W10.6 56 km (35 mi) SE of Hawthorne, NV
map1.02022/11/25 23:07:3938.830N122.850W1.86 10 km ( 6 mi) NW of The Geysers, CA
map2.02022/11/25 22:58:1539.308N122.857W3.9 17 km (10 mi) NNE of Upper Lake, CA
map0.72022/11/25 22:39:5040.059N119.986W8.5 42 km (26 mi) N of Cold Springs, NV
map0.02022/11/25 22:13:0136.880N116.208W6.0 49 km (30 mi) E of Beatty, NV
map1.52022/11/25 22:07:3236.077N120.125W5.56 8 km ( 5 mi) N of Avenal, CA
map0.42022/11/25 21:58:0140.052N119.979W10.8 41 km (26 mi) N of Cold Springs, NV
map0.22022/11/25 21:57:0437.547N118.839W3.87 16 km (10 mi) SE of Mammoth Lakes, CA
map0.32022/11/25 21:16:4538.182N117.877W10.4 58 km (36 mi) WNW of Tonopah, NV
map0.82022/11/25 21:00:5738.814N122.799W2.58 6 km ( 3 mi) NW of The Geysers, CA
map1.02022/11/25 20:53:4733.029N116.419W10.39 18 km (11 mi) ESE of Julian, CA
map1.32022/11/25 19:42:5633.827N117.001W11.67 6 km ( 4 mi) NW of San Jacinto, CA
map1.72022/11/25 19:33:3035.920N117.718W3.01 17 km (11 mi) E of Little Lake, CA
map0.22022/11/25 19:33:2336.719N116.097W5.0 57 km (36 mi) N of Pahrump, NV
map0.92022/11/25 19:25:5433.823N117.007W14.23 6 km ( 4 mi) NW of San Jacinto, CA
map0.92022/11/25 19:22:5538.827N122.804W1.59 7 km ( 4 mi) NW of The Geysers, CA
map1.82022/11/25 19:16:1333.825N117.006W11.99 6 km ( 4 mi) NW of San Jacinto, CA
map2.62022/11/25 19:15:5136.704N121.337W2.81 12 km ( 8 mi) SSE of Ridgemark, CA
map0.72022/11/25 19:13:3033.956N116.851W8.02 4 km ( 3 mi) NE of Banning, CA
map1.02022/11/25 19:05:0638.838N122.808W2 8 km ( 5 mi) WNW of Cobb, CA
map0.12022/11/25 18:57:4739.132N120.021W9.3 9 km ( 6 mi) SE of Dollar Point, CA
map0.92022/11/25 18:43:3033.469N116.097W-0.04 0 km ( 0 mi) NNE of Oasis, CA
map0.92022/11/25 18:22:5733.471N116.446W3.01 23 km (14 mi) ESE of Anza, CA
map0.42022/11/25 17:37:3040.054N119.980W10.5 42 km (26 mi) N of Cold Springs, NV
map0.72022/11/25 17:29:2133.417N116.909W9.38 5 km ( 3 mi) SW of Aguanga, CA
map0.92022/11/25 17:21:0037.287N121.654W6.73 16 km (10 mi) E of Seven Trees, CA
map2.72022/11/25 17:16:4336.642N121.263W6.36 21 km (13 mi) SSE of Ridgemark, CA
map0.92022/11/25 17:12:0038.834N122.818W1.85 8 km ( 5 mi) NW of The Geysers, CA
map0.62022/11/25 16:45:1938.880N122.824W2.99 11 km ( 7 mi) NW of Cobb, CA
map0.42022/11/25 16:43:5038.809N122.772W1.18 4 km ( 2 mi) NNW of The Geysers, CA
map0.92022/11/25 16:43:0138.835N122.818W1.58 8 km ( 5 mi) NW of The Geysers, CA
map0.82022/11/25 16:41:3833.658N116.737W16.53 9 km ( 6 mi) S of Idyllwild, CA
map0.62022/11/25 16:40:0033.219N116.748W10.5 3 km ( 2 mi) SSE of Lake Henshaw, CA
map2.22022/11/25 16:31:5036.644N121.266W6.43 21 km (13 mi) SSE of Ridgemark, CA
map0.92022/11/25 16:30:2638.794N122.721W2.22 3 km ( 2 mi) S of Cobb, CA
map1.82022/11/25 16:03:3436.093N117.892W5.22 7 km ( 5 mi) NE of Coso Junction, CA
map0.32022/11/25 15:50:4634.291N117.754W7.26 14 km ( 8 mi) SW of Wrightwood, CA
map2.22022/11/25 15:28:4632.033N116.180W14.61 45 km (28 mi) ENE of Ensenada, B.C., MX
map0.92022/11/25 14:37:5538.840N122.825W1.5 9 km ( 6 mi) WNW of Cobb, CA
map1.42022/11/25 13:37:2135.742N117.547W9.29 13 km ( 8 mi) WSW of Searles Valley, CA
map1.12022/11/25 12:46:4938.123N118.025W10.3 69 km (43 mi) SE of Hawthorne, NV
map1.22022/11/25 12:43:5533.640N116.711W15.33 10 km ( 6 mi) NNW of Anza, CA
map0.82022/11/25 12:43:4333.585N116.807W7.33 13 km ( 8 mi) WNW of Anza, CA
map1.42022/11/25 12:27:0633.267N116.423W4.3 5 km ( 3 mi) WNW of Borrego Springs, CA
map1.32022/11/25 12:03:5338.336N118.175W10.0 44 km (28 mi) ESE of Hawthorne, NV
map1.32022/11/25 12:00:3438.275N119.127W0.8 52 km (32 mi) WSW of Hawthorne, NV
map1.52022/11/25 11:55:0533.160N116.018W3.14 11 km ( 7 mi) E of Ocotillo Wells, CA
map2.22022/11/25 11:37:4433.950N117.501W10.33 4 km ( 2 mi) SW of Pedley, CA
map0.52022/11/25 11:25:1238.824N122.794W2.7 6 km ( 4 mi) NNW of The Geysers, CA
map0.72022/11/25 11:20:1533.685N117.359W5.62 3 km ( 2 mi) WNW of Lake Elsinore, CA
map1.02022/11/25 11:03:0334.418N119.269W10.32 4 km ( 3 mi) SW of Ojai, CA
map1.92022/11/25 10:33:1533.141N115.963W5.85 16 km (10 mi) E of Ocotillo Wells, CA
map0.62022/11/25 10:31:5238.769N122.728W0.59 3 km ( 2 mi) ESE of The Geysers, CA
map-0.12022/11/25 10:29:1236.662N116.266W3.8 51 km (32 mi) ESE of Beatty, NV
map1.52022/11/25 09:57:0037.941N118.547W3.49 51 km (32 mi) NE of Mammoth Lakes, CA
map1.12022/11/25 09:41:4738.792N122.762W2.49 2 km ( 1 mi) NNW of The Geysers, CA
map1.02022/11/25 09:25:2333.719N116.827W16.4 7 km ( 4 mi) ESE of Valle Vista, CA
map1.42022/11/25 09:14:0533.910N117.670W12.21 10 km ( 6 mi) WNW of Corona, CA
map0.92022/11/25 08:49:3438.833N122.811W1.66 8 km ( 5 mi) W of Cobb, CA
map1.02022/11/25 08:21:3932.837N116.028W8.94 12 km ( 7 mi) NNW of Ocotillo, CA
map0.72022/11/25 08:16:4633.523N116.516W13.31 15 km ( 9 mi) ESE of Anza, CA
map0.92022/11/25 08:13:2438.835N122.816W1.87 8 km ( 5 mi) W of Cobb, CA
map0.92022/11/25 07:30:3538.758N122.727W2.59 3 km ( 2 mi) SE of The Geysers, CA
map1.02022/11/25 05:38:1733.171N116.442W11.78 11 km ( 7 mi) SSW of Borrego Springs, CA
map1.02022/11/25 04:16:5333.976N116.928W13.92 7 km ( 4 mi) NE of Beaumont, CA
map0.22022/11/25 03:52:5440.096N119.653W10.7 50 km (31 mi) N of Spanish Springs, NV
map1.22022/11/25 03:46:5233.475N116.453W3.87 22 km (14 mi) ESE of Anza, CA
map0.52022/11/25 03:24:5938.848N122.773W1 5 km ( 3 mi) NW of Cobb, CA
map1.22022/11/25 02:50:3333.472N116.455W2.67 22 km (14 mi) ESE of Anza, CA
map1.22022/11/25 02:45:3633.473N116.456W2.95 22 km (14 mi) ESE of Anza, CA
map0.62022/11/25 02:19:4938.776N122.707W2.37 4 km ( 3 mi) E of The Geysers, CA
map0.52022/11/25 02:13:2734.013N116.805W11.92 11 km ( 7 mi) N of Cabazon, CA
map1.12022/11/25 02:04:1333.768N116.076W3.14 13 km ( 8 mi) NE of Coachella, CA
map0.12022/11/25 01:49:2036.751N116.252W8.3 48 km (30 mi) ESE of Beatty, NV
map1.32022/11/25 01:24:3137.904N122.086W12.01 2 km ( 1 mi) W of Walnut Creek, CA
map0.72022/11/25 01:10:4638.152N117.889W9.7 58 km (36 mi) W of Tonopah, NV
map2.42022/11/25 01:06:0133.994N118.349W7.84 0 km ( 0 mi) S of View Park-Windsor Hills, CA
map0.92022/11/25 01:00:1838.799N122.751W1.63 2 km ( 1 mi) N of The Geysers, CA
map1.12022/11/25 00:32:3133.999N118.362W12.41 1 km ( 1 mi) ESE of Baldwin Hills, CA
map1.12022/11/25 00:31:0834.010N118.362W11.31 1 km ( 1 mi) NE of Baldwin Hills, CA
map1.12022/11/25 00:12:2737.042N121.790W8.7 6 km ( 4 mi) NNE of Corralitos, CA
map1.02022/11/25 00:07:5938.179N118.171W8.3 55 km (34 mi) SE of Hawthorne, NV
map0.92022/11/24 23:25:0836.459N116.152W6.4 30 km (19 mi) NNW of Pahrump, NV
map0.52022/11/24 23:09:4438.834N122.817W1.98 8 km ( 5 mi) NW of The Geysers, CA
map1.32022/11/24 21:26:5938.166N117.856W0.2 56 km (35 mi) W of Tonopah, NV
map1.22022/11/24 21:17:5639.050N123.073W4.11 12 km ( 8 mi) SE of Talmage, CA
map0.92022/11/24 21:07:3238.823N122.852W2.6 10 km ( 6 mi) WNW of The Geysers, CA
map0.92022/11/24 20:34:5733.505N116.492W-0.13 18 km (11 mi) ESE of Anza, CA
map1.22022/11/24 20:27:5738.174N122.292W9.21 3 km ( 2 mi) W of American Canyon, CA
map0.92022/11/24 20:08:1738.764N122.727W2.93 3 km ( 2 mi) ESE of The Geysers, CA
map0.72022/11/24 19:48:4437.908N118.185W0.3 61 km (38 mi) NNE of Dixon Lane-Meadow Creek, CA
map1.42022/11/24 19:40:0933.166N115.654W2.38 14 km ( 9 mi) WNW of Calipatria, CA
map0.92022/11/24 19:29:3737.526N118.837W2.15 18 km (11 mi) SE of Mammoth Lakes, CA
map0.72022/11/24 19:23:5434.429N117.901W5.76 9 km ( 5 mi) S of Pearblossom, CA
map1.92022/11/24 19:14:1333.926N117.100W14.48 8 km ( 5 mi) SSW of Calimesa, CA
map0.92022/11/24 18:50:2638.836N122.793W2.21 6 km ( 4 mi) WNW of Cobb, CA
map0.42022/11/24 18:45:0038.835N122.818W1.7 8 km ( 5 mi) W of Cobb, CA
map1.22022/11/24 18:44:5038.834N122.817W1.88 8 km ( 5 mi) NW of The Geysers, CA
map-0.22022/11/24 18:37:2239.350N119.974W5.6 11 km ( 7 mi) N of Incline Village, NV
map1.62022/11/24 18:31:4838.617N119.593W6.2 28 km (18 mi) SW of Smith Valley, NV
map0.72022/11/24 18:06:5338.822N122.763W2.01 3 km ( 2 mi) W of Cobb, CA
map1.42022/11/24 18:05:2234.019N117.592W4.28 5 km ( 3 mi) SE of Ontario, CA
map1.12022/11/24 17:48:0933.691N116.710W17.08 5 km ( 3 mi) S of Idyllwild, CA
map1.42022/11/24 17:29:2035.713N121.093W7.69 17 km (10 mi) N of Cambria, CA
map2.62022/11/24 16:48:2038.170N116.733W2.1 45 km (28 mi) ENE of Tonopah, NV
map1.92022/11/24 16:10:0032.832N116.039W8.05 12 km ( 7 mi) NNW of Ocotillo, CA
map1.02022/11/24 15:41:1836.754N121.078W8.25 26 km (16 mi) ESE of Ridgemark, CA
map1.32022/11/24 15:39:4838.499N117.958W0.0 58 km (36 mi) E of Hawthorne, NV
map0.92022/11/24 15:27:5733.915N117.156W12.55 7 km ( 4 mi) E of Moreno Valley, CA
map0.82022/11/24 14:56:1338.832N122.807W2.38 7 km ( 5 mi) W of Cobb, CA
map1.02022/11/24 14:55:2637.469N121.811W5.79 10 km ( 6 mi) ENE of Milpitas, CA
map1.62022/11/24 14:47:2539.519N123.234W8.69 15 km (10 mi) ENE of Brooktrails, CA
map1.12022/11/24 14:31:5633.679N116.868W8.49 8 km ( 5 mi) SSE of Valle Vista, CA
map0.92022/11/24 14:23:2433.471N116.447W4.06 23 km (14 mi) ESE of Anza, CA
map0.62022/11/24 13:58:3133.475N116.443W3.1 23 km (14 mi) ESE of Anza, CA
map1.12022/11/24 13:56:0933.471N116.451W2.37 23 km (14 mi) ESE of Anza, CA
map0.32022/11/24 13:51:0838.824N122.855W2.98 10 km ( 6 mi) WNW of The Geysers, CA
map0.52022/11/24 13:47:4837.623N118.861W8.87 11 km ( 7 mi) E of Mammoth Lakes, CA
map2.12022/11/24 13:45:3735.384N118.781W4.2 18 km (11 mi) NE of Lamont, CA
map0.92022/11/24 13:36:4938.834N122.817W1.96 8 km ( 5 mi) NW of The Geysers, CA
map0.42022/11/24 12:14:5538.833N122.883W1.97 12 km ( 7 mi) ENE of Cloverdale, CA
map1.42022/11/24 11:46:2033.158N115.712W1.14 16 km (10 mi) NNW of Westmorland, CA
map0.12022/11/24 11:40:1236.043N120.587W6.4 21 km (13 mi) NW of Parkfield, CA
map0.72022/11/24 10:43:1333.412N116.607W10.19 15 km ( 9 mi) N of Warner Springs, CA
map1.72022/11/24 10:18:0235.998N120.565W3.36 16 km (10 mi) NW of Parkfield, CA
map0.92022/11/24 09:33:4738.838N122.812W1.55 8 km ( 5 mi) WNW of Cobb, CA
map1.62022/11/24 09:30:1335.927N117.428W0.01 18 km (11 mi) N of Searles Valley, CA
map0.52022/11/24 09:22:1138.804N122.803W3.26 5 km ( 3 mi) NW of The Geysers, CA
map1.12022/11/24 09:19:1133.484N116.453W6.12 22 km (14 mi) ESE of Anza, CA
map0.42022/11/24 09:12:5638.830N122.801W1.88 7 km ( 4 mi) W of Cobb, CA
map0.92022/11/24 08:31:5738.833N122.818W1.78 8 km ( 5 mi) NW of The Geysers, CA
map0.22022/11/24 08:20:4034.474N117.961W8.9 6 km ( 4 mi) SSE of Littlerock, CA
map0.52022/11/24 08:03:3238.823N122.799W1.96 6 km ( 4 mi) NW of The Geysers, CA
map0.82022/11/24 07:53:2833.496N116.497W8.56 18 km (11 mi) ESE of Anza, CA
map1.92022/11/24 07:50:2532.955N115.857W9.72 24 km (15 mi) WSW of Westmorland, CA
map2.12022/11/24 07:39:4536.591N121.194W6.51 22 km (14 mi) NNE of Soledad, CA
map2.52022/11/24 07:37:5636.004N120.564W4.14 17 km (10 mi) NW of Parkfield, CA
map0.82022/11/24 07:32:0737.426N117.072W0.0 64 km (40 mi) NNW of Beatty, NV
map2.02022/11/24 07:29:5635.050N119.001W12.58 13 km ( 8 mi) NNW of Grapevine, CA
map1.22022/11/24 06:53:5538.836N122.812W2.01 8 km ( 5 mi) WNW of Cobb, CA
map0.42022/11/24 06:48:5838.786N122.735W1.54 2 km ( 1 mi) ENE of The Geysers, CA
map0.42022/11/24 06:32:5238.841N122.830W2.45 10 km ( 6 mi) WNW of Cobb, CA
map1.22022/11/24 06:15:2336.185N120.773W4.92 32 km (20 mi) E of King City, CA
map1.22022/11/24 06:01:4037.229N122.107W12.22 8 km ( 5 mi) WSW of Saratoga, CA
map1.92022/11/24 05:56:2838.377N115.768W1.5124 km (77 mi) NNW of Alamo, NV
map0.82022/11/24 05:27:0834.094N116.854W4.47 17 km (11 mi) SSE of Big Bear Lake, CA
map0.92022/11/24 04:19:2738.778N122.702W1.92 5 km ( 3 mi) E of The Geysers, CA
map0.02022/11/24 04:00:3236.597N116.228W2.3 47 km (29 mi) NNW of Pahrump, NV
map0.72022/11/24 03:36:2533.652N116.718W15.72 10 km ( 6 mi) S of Idyllwild, CA
map0.22022/11/24 03:36:2433.657N116.714W15.66 9 km ( 6 mi) S of Idyllwild, CA
map0.52022/11/24 03:18:1738.839N122.771W1.64 5 km ( 3 mi) WNW of Cobb, CA
map0.82022/11/24 03:17:2733.474N116.448W5.59 23 km (14 mi) ESE of Anza, CA
map1.62022/11/24 03:12:2937.996N118.236W0.0 68 km (42 mi) SSE of Hawthorne, NV
map0.92022/11/24 02:55:4338.829N122.802W2.07 7 km ( 4 mi) W of Cobb, CA
map1.62022/11/24 02:52:0035.957N117.276W1.95 23 km (15 mi) NNE of Trona, CA
map0.62022/11/24 02:30:5338.843N122.774W1.22 5 km ( 3 mi) WNW of Cobb, CA
map0.42022/11/24 02:30:1638.838N122.776W0.75 5 km ( 3 mi) WNW of Cobb, CA
map1.92022/11/24 02:29:4338.835N122.775W0.77 5 km ( 3 mi) WNW of Cobb, CA
map0.92022/11/24 02:29:2338.838N122.776W1.11 5 km ( 3 mi) WNW of Cobb, CA
map2.12022/11/24 02:25:5736.736N121.069W8.46 28 km (17 mi) ESE of Ridgemark, CA
map0.42022/11/24 02:24:3638.790N122.767W2.16 2 km ( 1 mi) NNW of The Geysers, CA
map0.92022/11/24 01:36:3538.795N122.809W3.19 5 km ( 3 mi) WNW of The Geysers, CA
map0.22022/11/24 01:16:4238.810N122.820W3.25 7 km ( 4 mi) WNW of The Geysers, CA
map0.42022/11/24 01:15:5933.491N116.755W7.16 10 km ( 6 mi) SW of Anza, CA
map0.92022/11/24 01:08:3838.824N122.763W2.21 3 km ( 2 mi) W of Cobb, CA
map1.22022/11/24 00:57:2139.590N119.087W0.0 14 km ( 9 mi) E of Fernley, NV
map0.52022/11/24 00:44:4539.558N120.552W15.1 29 km (18 mi) SSW of Portola, CA
map1.12022/11/24 00:40:0138.795N122.809W3.12 5 km ( 3 mi) WNW of The Geysers, CA
map1.52022/11/24 00:04:5534.590N119.129W2.26 19 km (12 mi) NNE of Ojai, CA
map0.52022/11/23 23:41:4439.195N119.823W9.8 6 km ( 4 mi) NW of Carson City, NV
MAP3.02022/11/23 23:20:5433.069N115.584W11.77 5 km ( 3 mi) NE of Westmorland, CA
map1.72022/11/23 23:13:2033.090N116.054W9.57 9 km ( 6 mi) SE of Ocotillo Wells, CA
map1.82022/11/23 23:09:5233.089N116.056W8.43 9 km ( 6 mi) SE of Ocotillo Wells, CA
map0.92022/11/23 23:08:2038.794N122.749W2.67 2 km ( 1 mi) NNE of The Geysers, CA
map1.12022/11/23 23:01:0134.585N119.134W10.54 18 km (11 mi) NNE of Ojai, CA
map0.62022/11/23 22:24:1433.693N116.798W15.87 9 km ( 6 mi) SW of Idyllwild, CA
map1.82022/11/23 22:03:2838.170N116.124W16.0 97 km (61 mi) E of Tonopah, NV
map1.22022/11/23 21:59:1239.602N119.088W12.9 14 km ( 9 mi) E of Fernley, NV
map2.52022/11/23 21:45:4838.367N115.797W6.7125 km (77 mi) NNW of Alamo, NV
map0.82022/11/23 21:32:5535.620N118.407W2.95 6 km ( 4 mi) E of Lake Isabella, CA
map0.82022/11/23 21:32:3438.813N122.774W0.81 4 km ( 3 mi) NNW of The Geysers, CA
map0.82022/11/23 21:32:2636.022N117.853W2.62 9 km ( 6 mi) ESE of Coso Junction, CA
map1.32022/11/23 21:29:2234.015N117.176W5.61 5 km ( 3 mi) S of Redlands, CA
map0.92022/11/23 20:57:1934.094N116.853W4.22 17 km (11 mi) SSE of Big Bear Lake, CA
map0.82022/11/23 20:55:1633.216N116.743W11.54 3 km ( 2 mi) SSE of Lake Henshaw, CA
map0.72022/11/23 20:40:5733.492N116.752W6.8 10 km ( 6 mi) SW of Anza, CA
map1.12022/11/23 20:12:5738.813N122.761W1.43 3 km ( 2 mi) WSW of Cobb, CA
map1.02022/11/23 19:45:1533.678N116.759W15.39 8 km ( 5 mi) SSW of Idyllwild, CA
map0.32022/11/23 19:30:5640.094N119.528W10.8 52 km (32 mi) NNE of Spanish Springs, NV
map0.42022/11/23 19:30:5438.836N122.805W2.13 7 km ( 5 mi) WNW of Cobb, CA
map1.12022/11/23 19:29:2937.330N121.694W8.03 12 km ( 8 mi) ESE of East Foothills, CA
map1.12022/11/23 19:28:1437.330N121.693W8.08 12 km ( 8 mi) ESE of East Foothills, CA
map0.92022/11/23 19:13:5237.331N121.695W8.23 12 km ( 8 mi) ESE of East Foothills, CA
map0.82022/11/23 19:00:2937.147N121.542W3.71 9 km ( 6 mi) NE of San Martin, CA
map0.72022/11/23 18:42:0833.758N116.917W10.62 2 km ( 2 mi) WNW of Valle Vista, CA
map1.42022/11/23 18:35:2138.799N122.751W1.51 2 km ( 2 mi) N of The Geysers, CA
map1.82022/11/23 18:33:3539.596N119.086W0.0 14 km ( 9 mi) E of Fernley, NV
map1.72022/11/23 18:22:2237.294N120.020W26.06 21 km (13 mi) ENE of Le Grand, CA
map0.42022/11/23 18:20:2538.810N122.772W1.41 4 km ( 2 mi) NNW of The Geysers, CA
map0.82022/11/23 18:08:4833.216N116.744W11.37 3 km ( 2 mi) SSE of Lake Henshaw, CA
map1.02022/11/23 17:50:4333.215N116.743W11.55 4 km ( 2 mi) SSE of Lake Henshaw, CA
map-0.32022/11/23 17:23:0336.704N116.332W9.6 44 km (27 mi) ESE of Beatty, NV
map1.32022/11/23 16:14:0435.045N117.663W-0.79 2 km ( 1 mi) NE of Quarry at BORON (Probable quarry explosion)
map0.82022/11/23 16:11:3833.218N116.745W11.18 3 km ( 2 mi) SSE of Lake Henshaw, CA
map0.92022/11/23 16:04:3233.148N116.486W15.44 13 km ( 8 mi) NE of Julian, CA
map0.62022/11/23 16:03:1433.714N116.813W15.51 8 km ( 5 mi) ESE of Valle Vista, CA
map1.22022/11/23 15:51:1438.788N122.767W2.48 2 km ( 1 mi) NW of The Geysers, CA
map0.42022/11/23 15:34:4838.836N122.808W2.31 7 km ( 5 mi) WNW of Cobb, CA
map1.72022/11/23 15:20:2937.711N121.987W10.14 5 km ( 3 mi) WNW of Dublin, CA
map2.12022/11/23 15:18:4936.114N120.786W8.84 33 km (20 mi) ESE of King City, CA
map0.82022/11/23 15:09:4438.816N122.812W2.95 6 km ( 4 mi) NW of The Geysers, CA
map0.52022/11/23 14:37:5633.584N116.804W7.79 12 km ( 8 mi) WNW of Anza, CA
map2.02022/11/23 14:34:3037.291N121.661W5.51 16 km (10 mi) E of Seven Trees, CA
map2.92022/11/23 14:34:0237.292N121.664W5.82 15 km (10 mi) E of Seven Trees, CA
map1.02022/11/23 14:33:0633.872N117.771W4.35 4 km ( 3 mi) ESE of Yorba Linda, CA
map1.02022/11/23 14:33:0134.050N117.224W15.93 3 km ( 2 mi) E of Loma Linda, CA
map2.82022/11/23 14:16:5733.876N117.766W4.79 5 km ( 3 mi) ESE of Yorba Linda, CA
map1.32022/11/23 14:16:4934.896N118.798W7.77 9 km ( 5 mi) NE of Lebec, CA
map0.42022/11/23 14:10:0738.794N122.746W2.48 2 km ( 1 mi) NNE of The Geysers, CA
map0.62022/11/23 13:58:4933.521N116.700W13.41 4 km ( 3 mi) SSW of Anza, CA
map1.12022/11/23 12:20:5138.786N122.754W2.01 1 km ( 1 mi) NNE of The Geysers, CA
map1.12022/11/23 12:12:0833.065N116.257W9.44 15 km ( 9 mi) SW of Ocotillo Wells, CA
map1.02022/11/23 11:53:4433.471N116.448W5.33 23 km (14 mi) ESE of Anza, CA
map0.42022/11/23 11:44:1038.842N122.877W2.37 13 km ( 8 mi) NW of The Geysers, CA
map1.32022/11/23 11:34:0037.310N121.677W7.84 15 km ( 9 mi) E of Seven Trees, CA
map0.52022/11/23 10:45:3738.837N122.794W1.95 6 km ( 4 mi) WNW of Cobb, CA
map1.62022/11/23 10:26:2739.458N122.964W-0.63 30 km (18 mi) NE of Redwood Valley, CA
map-0.32022/11/23 10:09:2036.658N116.267W5.9 52 km (32 mi) ESE of Beatty, NV
map1.32022/11/23 10:07:1035.672N117.497W2.85 14 km ( 8 mi) SW of Searles Valley, CA
map1.82022/11/23 09:50:4035.498N118.398W6.76 13 km ( 8 mi) SE of Bodfish, CA
map1.42022/11/23 09:49:0134.337N116.885W-1.41 4 km ( 2 mi) WSW of Quarry at CUSHENBURY (Probable quarry explosion)
map0.82022/11/23 09:11:4738.158N117.898W7.2 59 km (37 mi) W of Tonopah, NV
map1.72022/11/23 09:09:3238.192N117.865W6.4 57 km (36 mi) WNW of Tonopah, NV
map0.92022/11/23 09:08:3938.801N122.770W1.59 3 km ( 2 mi) NNW of The Geysers, CA
map1.42022/11/23 08:51:5432.880N115.507W4.84 7 km ( 4 mi) ENE of Imperial, CA
map0.92022/11/23 08:34:0933.310N116.233W11.6 15 km ( 9 mi) ENE of Borrego Springs, CA
map0.42022/11/23 08:29:4938.836N122.790W1.9 6 km ( 4 mi) WNW of Cobb, CA
map0.92022/11/23 08:16:3938.848N122.829W1.33 10 km ( 6 mi) WNW of Cobb, CA
map1.12022/11/23 08:11:2138.177N117.886W8.4 59 km (36 mi) WNW of Tonopah, NV
map1.52022/11/23 07:54:4239.534N123.337W9.27 11 km ( 7 mi) NNE of Brooktrails, CA
map2.12022/11/23 07:36:3033.652N116.738W12.4 10 km ( 6 mi) S of Idyllwild, CA
map-0.12022/11/23 07:29:1936.725N116.307W8.3 45 km (28 mi) ESE of Beatty, NV
map0.92022/11/23 07:18:2934.484N118.087W10.47 3 km ( 2 mi) SE of Vincent, CA
map0.82022/11/23 07:00:2736.021N117.782W2.2 15 km ( 9 mi) NE of Little Lake, CA
map1.22022/11/23 06:43:2238.204N117.770W9.0 50 km (31 mi) WNW of Tonopah, NV
map1.02022/11/23 06:23:4635.573N118.366W3.12 11 km ( 7 mi) ESE of Lake Isabella, CA
map2.32022/11/23 06:13:4238.186N117.865W8.0 57 km (35 mi) WNW of Tonopah, NV
map1.52022/11/23 06:12:4737.501N118.872W3.46 18 km (11 mi) SSE of Mammoth Lakes, CA
map1.52022/11/23 05:52:3533.278N116.079W4.22 12 km ( 7 mi) WSW of Salton City, CA
map2.52022/11/23 05:38:0935.638N117.444W6.62 15 km ( 9 mi) SSW of Searles Valley, CA
map0.42022/11/23 05:35:1838.826N122.812W1.9 7 km ( 5 mi) NW of The Geysers, CA
map1.12022/11/23 05:15:4537.282N121.655W3.11 16 km (10 mi) E of Seven Trees, CA
map0.82022/11/23 04:59:2635.910N117.682W8.74 20 km (13 mi) E of Little Lake, CA
map1.22022/11/23 04:58:4733.220N116.746W11.26 3 km ( 2 mi) SSE of Lake Henshaw, CA
map1.12022/11/23 04:48:5333.819N116.888W17.26 8 km ( 5 mi) ENE of San Jacinto, CA
map2.02022/11/23 04:21:4439.215N122.837W-0.65 8 km ( 5 mi) NE of Upper Lake, CA
map2.32022/11/23 04:17:1338.172N117.793W11.3 50 km (31 mi) WNW of Tonopah, NV
map1.32022/11/23 04:02:2433.219N116.743W11.6 3 km ( 2 mi) SE of Lake Henshaw, CA
map0.22022/11/23 04:00:1339.006N119.650W10.7 8 km ( 5 mi) SE of Johnson Lane, NV
map1.12022/11/23 03:25:0535.938N117.694W0.01 19 km (12 mi) E of Little Lake, CA
map1.22022/11/23 02:33:4938.844N122.829W1.52 9 km ( 6 mi) WNW of Cobb, CA
map0.52022/11/23 02:32:0534.490N118.083W10.53 3 km ( 2 mi) ESE of Vincent, CA
map0.92022/11/23 01:59:2833.089N116.037W8.55 11 km ( 7 mi) SE of Ocotillo Wells, CA
map1.32022/11/23 01:53:2641.958N119.537W0.0 72 km (44 mi) ESE of Lakeview, OR
map0.22022/11/23 01:28:3738.821N122.787W2.24 6 km ( 3 mi) W of Cobb, CA
map1.02022/11/23 01:18:0638.786N122.734W1.58 2 km ( 1 mi) ENE of The Geysers, CA
map0.42022/11/23 01:01:1933.656N116.700W14.44 9 km ( 6 mi) S of Idyllwild, CA
map0.52022/11/23 00:43:4738.183N117.873W9.8 58 km (36 mi) WNW of Tonopah, NV
map0.92022/11/23 00:31:5640.170N119.797W0.0 57 km (35 mi) NNE of Cold Springs, NV
map0.92022/11/23 00:05:3033.017N116.345W10.76 24 km (15 mi) SW of Ocotillo Wells, CA
map1.02022/11/23 00:01:5139.619N119.073W16.8 15 km (10 mi) E of Fernley, NV
map0.42022/11/23 00:01:3033.500N116.511W5.74 16 km (10 mi) ESE of Anza, CA
map0.92022/11/22 23:55:1238.838N122.839W1.73 10 km ( 6 mi) NW of The Geysers, CA
map1.22022/11/22 23:39:2038.782N122.778W1.25 2 km ( 1 mi) WNW of The Geysers, CA
map1.82022/11/22 23:36:0736.583N121.187W7.9 22 km (13 mi) NE of Soledad, CA
map0.32022/11/22 23:20:3239.367N119.963W3.8 13 km ( 8 mi) N of Incline Village, NV
map1.02022/11/22 22:58:0532.896N116.265W11.95 26 km (16 mi) ENE of Pine Valley, CA
map1.42022/11/22 22:56:0732.892N116.268W10.65 26 km (16 mi) ENE of Pine Valley, CA
map1.42022/11/22 22:55:4034.382N116.935W4.5 8 km ( 5 mi) SSE of Lucerne Valley, CA
map1.72022/11/22 22:50:1732.889N116.273W10.66 25 km (16 mi) ENE of Pine Valley, CA
map1.32022/11/22 22:50:1432.892N116.266W11.92 26 km (16 mi) ENE of Pine Valley, CA
map1.82022/11/22 22:49:5332.893N116.271W9.89 25 km (16 mi) ENE of Pine Valley, CA
map1.52022/11/22 22:45:1537.439N119.018W8.54 22 km (14 mi) S of Mammoth Lakes, CA
map1.22022/11/22 22:37:2833.703N116.812W14.04 9 km ( 6 mi) ESE of Valle Vista, CA
map1.52022/11/22 22:12:5832.690N115.693W8.6 16 km (10 mi) NW of Progreso, B.C., MX
map0.82022/11/22 22:06:3733.345N116.330W12.67 11 km ( 7 mi) NNE of Borrego Springs, CA
map0.92022/11/22 21:38:0634.017N117.171W6.72 4 km ( 3 mi) SSE of Redlands, CA
map0.62022/11/22 20:41:3339.512N120.326W6.2 24 km (15 mi) NNW of Truckee, CA
map1.22022/11/22 20:11:0639.303N123.216W6.53 4 km ( 3 mi) NNW of Redwood Valley, CA
map2.12022/11/22 19:56:1737.296N120.021W22.23 21 km (13 mi) ENE of Le Grand, CA
map1.92022/11/22 19:55:0335.208N120.915W4.54 14 km ( 9 mi) SSW of Los Osos, CA
map2.62022/11/22 19:42:4532.910N115.969W9.87 20 km (12 mi) N of Ocotillo, CA
map1.32022/11/22 19:32:2832.912N116.243W6.59 28 km (17 mi) SSW of Ocotillo Wells, CA
map1.92022/11/22 19:18:0040.330N121.902W1.03 18 km (11 mi) S of Shingletown, CA
map1.02022/11/22 19:16:4239.542N120.365W8.0 29 km (18 mi) NNW of Truckee, CA
map0.92022/11/22 18:47:0735.011N118.473W8.22 14 km ( 8 mi) S of Tehachapi, CA
MAP3.52022/11/22 18:30:1338.186N117.865W6.3 57 km (35 mi) WNW of Tonopah, NV
map0.42022/11/22 18:18:2238.835N122.785W1.65 6 km ( 3 mi) WNW of Cobb, CA
map2.22022/11/22 18:04:0337.404N118.459W11.9 4 km ( 3 mi) WNW of Dixon Lane-Meadow Creek, CA
map2.32022/11/22 17:39:1038.361N115.811W6.3124 km (77 mi) NNW of Alamo, NV
map0.92022/11/22 17:20:3133.681N116.791W16.4 9 km ( 6 mi) SW of Idyllwild, CA
map0.82022/11/22 17:16:3034.485N118.084W9.51 3 km ( 2 mi) ESE of Vincent, CA
map2.02022/11/22 16:55:2738.254N115.742W13.6111 km (69 mi) NNW of Alamo, NV
map1.12022/11/22 16:54:5837.505N118.889W0.45 17 km (10 mi) SSE of Mammoth Lakes, CA
map0.52022/11/22 16:29:3738.174N117.887W8.6 59 km (36 mi) WNW of Tonopah, NV
map1.92022/11/22 16:28:1737.630N121.812W7.71 7 km ( 4 mi) ESE of Pleasanton, CA
map0.72022/11/22 16:27:1938.893N119.639W0.1 9 km ( 6 mi) E of Gardnerville Ranchos, NV
map1.22022/11/22 16:10:1536.524N121.084W5.97 24 km (15 mi) ENE of Soledad, CA
map1.82022/11/22 16:09:5435.032N117.681W-0.82 0 km ( 0 mi) NNW of Quarry at BORON (Probable quarry explosion)
map1.92022/11/22 15:36:5838.270N115.982W3.0111 km (69 mi) ENE of Tonopah, NV
map0.92022/11/22 15:35:4837.475N118.785W6.13 25 km (15 mi) SE of Mammoth Lakes, CA
map2.32022/11/22 15:35:3738.422N115.852W0.1125 km (78 mi) SW of Ely, NV
map2.92022/11/22 15:31:3138.349N115.827W7.3124 km (77 mi) NNW of Alamo, NV
map2.82022/11/22 15:28:1538.322N115.927W4.8117 km (73 mi) ENE of Tonopah, NV
map0.92022/11/22 15:16:2138.832N122.818W1.61 8 km ( 5 mi) NW of The Geysers, CA
map-0.52022/11/22 15:16:0139.231N120.086W8.1 3 km ( 2 mi) WSW of Tahoe Vista, CA
map1.42022/11/22 15:00:5832.908N115.958W10.16 19 km (12 mi) N of Ocotillo, CA
map1.82022/11/22 14:42:0136.254N120.826W6.71 28 km (17 mi) E of King City, CA
map1.52022/11/22 14:41:4438.130N118.027W8.7 68 km (42 mi) SE of Hawthorne, NV
map1.02022/11/22 14:29:5833.299N116.057W6.36 9 km ( 6 mi) W of Salton City, CA
map1.52022/11/22 14:26:0632.885N115.959W9.76 17 km (11 mi) N of Ocotillo, CA
map1.22022/11/22 14:13:0334.846N118.976W4.15 4 km ( 2 mi) NW of Frazier Park, CA
map1.02022/11/22 13:55:4838.547N119.513W6.8 30 km (19 mi) SSW of Smith Valley, NV
map-0.32022/11/22 13:45:2336.717N116.297W10.5 46 km (29 mi) ESE of Beatty, NV
map1.32022/11/22 13:31:2438.546N119.507W7.7 30 km (19 mi) SSW of Smith Valley, NV
map1.42022/11/22 13:29:5035.045N119.062W1.8 16 km (10 mi) NW of Grapevine, CA
map0.82022/11/22 13:25:5440.099N119.711W17.0 50 km (31 mi) N of Spanish Springs, NV
map-0.42022/11/22 13:22:3236.804N116.114W7.8 58 km (36 mi) E of Beatty, NV
map1.12022/11/22 13:16:0836.069N120.633W3.43 26 km (16 mi) WSW of Coalinga, CA
map1.22022/11/22 13:12:0635.028N119.061W9.78 15 km ( 9 mi) NW of Grapevine, CA
map2.02022/11/22 13:10:3135.036N119.073W12.06 17 km (10 mi) NW of Grapevine, CA
map0.82022/11/22 13:07:5637.147N121.534W3.76 10 km ( 6 mi) NE of San Martin, CA
map0.82022/11/22 12:54:1935.930N117.762W7.1 13 km ( 8 mi) E of Little Lake, CA
map0.42022/11/22 12:53:4438.805N122.779W2.85 4 km ( 2 mi) NNW of The Geysers, CA
map1.12022/11/22 12:38:0436.022N117.782W2.4 15 km ( 9 mi) NE of Little Lake, CA
map1.42022/11/22 12:28:1932.587N117.011W-0.32 5 km ( 3 mi) SW of Quarry at SYS-1 (Probable quarry explosion)
map0.72022/11/22 12:14:3035.749N117.543W6.9 13 km ( 8 mi) W of Searles Valley, CA
map1.42022/11/22 11:55:2834.987N118.197W-0.8 4 km ( 2 mi) SW of Quarry at TPO-DBM (Probable quarry explosion)
map0.12022/11/22 11:38:0938.780N122.733W0.23 2 km ( 1 mi) E of The Geysers, CA
map0.72022/11/22 11:37:3337.438N117.014W6.9 63 km (39 mi) NNW of Beatty, NV
map2.92022/11/22 11:29:1632.251N115.369W8.44 19 km (12 mi) W of Alberto Oviedo Mota, B.C., MX
map0.92022/11/22 11:27:1637.277N121.645W9.1 16 km (10 mi) N of Morgan Hill, CA
map1.12022/11/22 11:14:2138.544N119.508W7.6 30 km (19 mi) SSW of Smith Valley, NV
map1.62022/11/22 10:46:3237.018N119.813W-0.15115 km (72 mi) SSE of Quarry near Yosemite Junction, CA(Probable quarry explosion)
map0.82022/11/22 09:54:5733.486N116.547W8.83 14 km ( 9 mi) ESE of Anza, CA
map0.02022/11/22 09:12:2138.787N122.766W2.33 1 km ( 1 mi) NW of The Geysers, CA
map1.32022/11/22 08:55:0338.481N119.488W9.5 36 km (22 mi) SSW of Smith Valley, NV
map0.22022/11/22 08:35:2938.773N122.713W1.77 4 km ( 2 mi) E of The Geysers, CA
map0.02022/11/22 08:24:1338.317N118.489W13.6 26 km (16 mi) SSE of Hawthorne, NV
map0.72022/11/22 08:07:1038.825N122.763W1.97 3 km ( 2 mi) W of Cobb, CA
map0.62022/11/22 07:51:1233.487N116.758W6.89 11 km ( 7 mi) SW of Anza, CA
map1.02022/11/22 07:48:2334.541N118.812W2.18 14 km ( 9 mi) N of Piru, CA
map1.22022/11/22 07:18:0937.303N121.671W6.82 15 km ( 9 mi) E of Seven Trees, CA
map-0.22022/11/22 07:13:4336.711N116.076W0.7 56 km (35 mi) N of Pahrump, NV
map2.32022/11/22 06:32:5636.556N121.125W9.21 23 km (14 mi) NE of Soledad, CA
map1.02022/11/22 06:26:1437.287N121.660W4.88 16 km (10 mi) E of Seven Trees, CA
map1.32022/11/22 06:24:1036.886N121.405W8.46 4 km ( 3 mi) N of Hollister, CA
map-0.42022/11/22 05:50:5636.710N116.312W9.0 45 km (28 mi) ESE of Beatty, NV
map1.22022/11/22 05:40:5532.973N116.268W9.71 23 km (14 mi) SW of Ocotillo Wells, CA
map-0.22022/11/22 05:32:5136.715N116.309W8.4 45 km (28 mi) ESE of Beatty, NV
map0.72022/11/22 05:27:4438.795N122.794W0.7 4 km ( 2 mi) WNW of The Geysers, CA
map0.22022/11/22 05:18:0238.792N122.730W-0.84 3 km ( 2 mi) NE of The Geysers, CA
map1.22022/11/22 05:08:5739.257N123.133W1.94 6 km ( 4 mi) E of Redwood Valley, CA
map-0.22022/11/22 05:01:1836.802N116.114W8.2 58 km (36 mi) ESE of Beatty, NV
map0.62022/11/22 04:47:0437.441N115.971W5.6 72 km (45 mi) W of Alamo, NV
map0.82022/11/22 04:42:4433.270N116.313W4.61 6 km ( 4 mi) ENE of Borrego Springs, CA
map0.72022/11/22 04:29:2138.831N122.811W1.85 8 km ( 5 mi) NW of The Geysers, CA
map0.12022/11/22 04:29:1937.172N117.536W0.0 67 km (41 mi) E of Big Pine, CA
map0.62022/11/22 04:23:4633.273N116.306W4.41 7 km ( 4 mi) ENE of Borrego Springs, CA
map1.02022/11/22 04:17:4233.293N116.742W13.01 6 km ( 4 mi) NNE of Lake Henshaw, CA
map1.12022/11/22 04:13:4736.562N121.127W10.3 23 km (15 mi) NE of Soledad, CA
map0.42022/11/22 03:17:1238.829N122.854W1.77 10 km ( 6 mi) NW of The Geysers, CA
map0.92022/11/22 02:51:2533.690N116.723W15.61 6 km ( 3 mi) S of Idyllwild, CA
map0.92022/11/22 02:47:2734.008N117.217W6.71 6 km ( 4 mi) SE of Loma Linda, CA
map0.52022/11/22 02:43:2138.821N122.761W1.82 3 km ( 2 mi) W of Cobb, CA
map1.32022/11/22 02:25:3838.173N117.829W8.1 54 km (33 mi) WNW of Tonopah, NV
map1.12022/11/22 02:18:4234.011N117.215W6.76 6 km ( 4 mi) SSW of Redlands, CA
map0.52022/11/22 02:18:4033.678N116.769W14.96 8 km ( 5 mi) SW of Idyllwild, CA
map2.12022/11/22 02:16:2636.551N121.126W8.38 23 km (14 mi) NE of Soledad, CA